sensor_id;sensor_type;location;lat;lon;timestamp;pressure;altitude;pressure_sealevel;temperature;humidity
56944;BME280;42848;42.524;12.052;2023-10-19T00:00:13;96145.78;;;16.14;100.00
56944;BME280;42848;42.524;12.052;2023-10-19T00:02:49;96120.41;;;16.47;100.00
56944;BME280;42848;42.524;12.052;2023-10-19T00:05:17;96087.59;;;16.20;100.00
56944;BME280;42848;42.524;12.052;2023-10-19T00:07:43;96105.09;;;16.12;100.00
56944;BME280;42848;42.524;12.052;2023-10-19T00:10:09;96124.06;;;16.58;100.00
56944;BME280;42848;42.524;12.052;2023-10-19T00:12:35;96130.41;;;16.36;100.00
56944;BME280;42848;42.524;12.052;2023-10-19T00:15:01;96141.59;;;16.54;100.00
56944;BME280;42848;42.524;12.052;2023-10-19T00:17:30;96144.00;;;16.55;100.00
56944;BME280;42848;42.524;12.052;2023-10-19T00:19:57;96149.47;;;16.55;100.00
56944;BME280;42848;42.524;12.052;2023-10-19T00:22:43;96141.19;;;16.52;100.00
56944;BME280;42848;42.524;12.052;2023-10-19T00:25:09;96141.38;;;16.36;100.00
56944;BME280;42848;42.524;12.052;2023-10-19T00:27:39;96139.31;;;15.99;100.00
56944;BME280;42848;42.524;12.052;2023-10-19T00:30:05;96133.22;;;16.09;100.00
56944;BME280;42848;42.524;12.052;2023-10-19T00:32:35;96148.13;;;16.42;100.00
56944;BME280;42848;42.524;12.052;2023-10-19T00:35:05;96133.75;;;16.52;100.00
56944;BME280;42848;42.524;12.052;2023-10-19T00:37:33;96117.22;;;16.45;100.00
56944;BME280;42848;42.524;12.052;2023-10-19T00:40:07;96106.47;;;16.59;100.00
56944;BME280;42848;42.524;12.052;2023-10-19T00:42:41;96104.78;;;16.51;100.00
56944;BME280;42848;42.524;12.052;2023-10-19T00:45:11;96085.19;;;15.89;100.00
56944;BME280;42848;42.524;12.052;2023-10-19T00:47:38;96091.25;;;16.32;100.00
56944;BME280;42848;42.524;12.052;2023-10-19T00:50:08;96085.81;;;16.35;100.00
56944;BME280;42848;42.524;12.052;2023-10-19T00:52:40;96078.56;;;15.90;100.00
56944;BME280;42848;42.524;12.052;2023-10-19T00:55:15;96067.31;;;15.95;100.00
56944;BME280;42848;42.524;12.052;2023-10-19T00:57:41;96064.00;;;16.12;100.00
56944;BME280;42848;42.524;12.052;2023-10-19T01:00:11;96068.53;;;16.28;100.00
56944;BME280;42848;42.524;12.052;2023-10-19T01:02:37;96052.38;;;16.19;100.00
56944;BME280;42848;42.524;12.052;2023-10-19T01:05:08;96047.47;;;16.35;100.00
56944;BME280;42848;42.524;12.052;2023-10-19T01:07:38;96050.91;;;16.29;100.00
56944;BME280;42848;42.524;12.052;2023-10-19T01:10:04;96040.41;;;16.34;100.00
56944;BME280;42848;42.524;12.052;2023-10-19T01:12:33;96029.50;;;16.38;100.00
56944;BME280;42848;42.524;12.052;2023-10-19T01:15:11;96021.63;;;16.36;100.00
56944;BME280;42848;42.524;12.052;2023-10-19T01:17:44;96010.69;;;16.36;100.00
56944;BME280;42848;42.524;12.052;2023-10-19T01:20:14;96014.72;;;16.46;100.00
56944;BME280;42848;42.524;12.052;2023-10-19T01:25:48;96003.41;;;16.47;100.00
56944;BME280;42848;42.524;12.052;2023-10-19T01:28:21;96002.94;;;16.45;100.00
56944;BME280;42848;42.524;12.052;2023-10-19T01:30:50;96001.34;;;16.41;100.00
56944;BME280;42848;42.524;12.052;2023-10-19T01:33:19;95999.00;;;16.39;100.00
56944;BME280;42848;42.524;12.052;2023-10-19T01:35:45;95987.53;;;16.30;100.00
56944;BME280;42848;42.524;12.052;2023-10-19T01:38:29;95991.88;;;16.35;100.00
56944;BME280;42848;42.524;12.052;2023-10-19T01:40:59;95993.94;;;16.45;100.00
56944;BME280;42848;42.524;12.052;2023-10-19T01:43:26;95996.31;;;16.09;100.00
56944;BME280;42848;42.524;12.052;2023-10-19T01:45:56;95987.97;;;16.36;100.00
56944;BME280;42848;42.524;12.052;2023-10-19T01:48:22;95973.47;;;16.32;100.00
56944;BME280;42848;42.524;12.052;2023-10-19T01:51:08;95989.63;;;16.44;100.00
56944;BME280;42848;42.524;12.052;2023-10-19T01:53:39;95981.78;;;16.39;100.00
56944;BME280;42848;42.524;12.052;2023-10-19T01:56:05;95967.50;;;16.23;100.00
56944;BME280;42848;42.524;12.052;2023-10-19T01:58:37;95963.56;;;16.20;100.00
56944;BME280;42848;42.524;12.052;2023-10-19T02:01:03;95957.31;;;16.19;100.00
56944;BME280;42848;42.524;12.052;2023-10-19T02:03:49;95932.47;;;16.39;100.00
56944;BME280;42848;42.524;12.052;2023-10-19T02:06:20;95951.16;;;16.30;100.00
56944;BME280;42848;42.524;12.052;2023-10-19T02:08:50;95941.66;;;16.57;100.00
56944;BME280;42848;42.524;12.052;2023-10-19T02:11:22;95935.91;;;16.69;100.00
56944;BME280;42848;42.524;12.052;2023-10-19T02:13:49;95930.69;;;16.61;100.00
56944;BME280;42848;42.524;12.052;2023-10-19T02:16:18;95924.94;;;16.69;100.00
56944;BME280;42848;42.524;12.052;2023-10-19T02:18:50;95924.50;;;16.27;100.00
56944;BME280;42848;42.524;12.052;2023-10-19T02:21:17;95912.03;;;16.29;100.00
56944;BME280;42848;42.524;12.052;2023-10-19T02:23:52;95916.13;;;16.49;100.00
56944;BME280;42848;42.524;12.052;2023-10-19T02:26:18;95907.03;;;16.38;100.00
56944;BME280;42848;42.524;12.052;2023-10-19T02:28:56;95903.22;;;16.54;100.00
56944;BME280;42848;42.524;12.052;2023-10-19T02:31:23;95896.94;;;16.46;100.00
56944;BME280;42848;42.524;12.052;2023-10-19T02:33:50;95903.69;;;16.59;100.00
56944;BME280;42848;42.524;12.052;2023-10-19T02:38:55;95902.03;;;16.51;100.00
56944;BME280;42848;42.524;12.052;2023-10-19T02:41:24;95890.94;;;16.33;100.00
56944;BME280;42848;42.524;12.052;2023-10-19T02:43:54;95895.47;;;16.63;100.00
56944;BME280;42848;42.524;12.052;2023-10-19T02:46:29;95884.16;;;16.64;100.00
56944;BME280;42848;42.524;12.052;2023-10-19T02:48:54;95894.34;;;16.67;100.00
56944;BME280;42848;42.524;12.052;2023-10-19T02:51:20;95877.09;;;16.63;100.00
56944;BME280;42848;42.524;12.052;2023-10-19T02:53:45;95876.44;;;16.73;100.00
56944;BME280;42848;42.524;12.052;2023-10-19T02:56:14;95883.75;;;16.62;100.00
56944;BME280;42848;42.524;12.052;2023-10-19T02:58:45;95881.09;;;16.69;100.00
56944;BME280;42848;42.524;12.052;2023-10-19T03:01:14;95889.53;;;16.50;100.00
56944;BME280;42848;42.524;12.052;2023-10-19T03:03:44;95890.31;;;16.54;100.00
56944;BME280;42848;42.524;12.052;2023-10-19T03:06:11;95877.09;;;16.63;100.00
56944;BME280;42848;42.524;12.052;2023-10-19T03:08:37;95894.22;;;16.53;100.00
56944;BME280;42848;42.524;12.052;2023-10-19T03:11:02;95895.13;;;16.64;100.00
56944;BME280;42848;42.524;12.052;2023-10-19T03:13:30;95879.44;;;16.61;100.00
56944;BME280;42848;42.524;12.052;2023-10-19T03:15:59;95898.22;;;16.59;100.00
56944;BME280;42848;42.524;12.052;2023-10-19T03:18:26;95876.41;;;16.70;100.00
56944;BME280;42848;42.524;12.052;2023-10-19T03:20:53;95881.28;;;16.50;100.00
56944;BME280;42848;42.524;12.052;2023-10-19T03:23:19;95883.34;;;16.60;100.00
56944;BME280;42848;42.524;12.052;2023-10-19T03:25:46;95883.34;;;16.64;100.00
56944;BME280;42848;42.524;12.052;2023-10-19T03:28:20;95884.84;;;16.54;100.00
56944;BME280;42848;42.524;12.052;2023-10-19T03:30:50;95879.47;;;16.65;100.00
56944;BME280;42848;42.524;12.052;2023-10-19T03:33:16;95895.13;;;16.64;100.00
56944;BME280;42848;42.524;12.052;2023-10-19T03:35:43;95899.06;;;16.67;100.00
56944;BME280;42848;42.524;12.052;2023-10-19T03:38:09;95888.88;;;16.67;100.00
56944;BME280;42848;42.524;12.052;2023-10-19T03:40:41;95879.13;;;16.70;100.00
56944;BME280;42848;42.524;12.052;2023-10-19T03:43:11;95881.50;;;16.71;100.00
56944;BME280;42848;42.524;12.052;2023-10-19T03:45:43;95883.56;;;16.85;100.00
56944;BME280;42848;42.524;12.052;2023-10-19T03:48:17;95900.84;;;16.93;100.00
56944;BME280;42848;42.524;12.052;2023-10-19T03:50:43;95887.53;;;16.95;100.00
56944;BME280;42848;42.524;12.052;2023-10-19T03:53:08;95868.69;;;16.90;100.00
56944;BME280;42848;42.524;12.052;2023-10-19T03:55:37;95860.47;;;16.90;100.00
56944;BME280;42848;42.524;12.052;2023-10-19T03:58:03;95862.44;;;16.89;100.00
56944;BME280;42848;42.524;12.052;2023-10-19T04:00:29;95849.09;;;16.84;100.00
56944;BME280;42848;42.524;12.052;2023-10-19T04:02:58;95839.72;;;16.89;100.00
56944;BME280;42848;42.524;12.052;2023-10-19T04:05:23;95831.88;;;16.91;100.00
56944;BME280;42848;42.524;12.052;2023-10-19T04:07:50;95837.81;;;16.93;100.00
56944;BME280;42848;42.524;12.052;2023-10-19T04:10:20;95820.19;;;16.97;100.00
56944;BME280;42848;42.524;12.052;2023-10-19T04:12:54;95815.13;;;17.03;100.00
56944;BME280;42848;42.524;12.052;2023-10-19T04:15:20;95827.28;;;17.09;100.00
56944;BME280;42848;42.524;12.052;2023-10-19T04:17:46;95829.69;;;17.14;100.00
56944;BME280;42848;42.524;12.052;2023-10-19T04:20:13;95834.41;;;17.17;100.00
56944;BME280;42848;42.524;12.052;2023-10-19T04:22:44;95830.88;;;17.17;100.00
56944;BME280;42848;42.524;12.052;2023-10-19T04:25:11;95832.03;;;17.12;100.00
56944;BME280;42848;42.524;12.052;2023-10-19T04:27:44;95835.16;;;17.14;100.00
56944;BME280;42848;42.524;12.052;2023-10-19T04:30:09;95826.94;;;17.14;100.00
56944;BME280;42848;42.524;12.052;2023-10-19T04:32:44;95825.78;;;17.15;100.00
56944;BME280;42848;42.524;12.052;2023-10-19T04:35:10;95828.50;;;17.15;100.00
56944;BME280;42848;42.524;12.052;2023-10-19T04:37:36;95812.44;;;17.10;100.00
56944;BME280;42848;42.524;12.052;2023-10-19T04:40:01;95824.59;;;17.16;100.00
56944;BME280;42848;42.524;12.052;2023-10-19T04:42:27;95824.22;;;17.18;100.00
56944;BME280;42848;42.524;12.052;2023-10-19T04:44:55;95828.91;;;17.17;100.00
56944;BME280;42848;42.524;12.052;2023-10-19T04:47:21;95825.81;;;17.22;100.00
56944;BME280;42848;42.524;12.052;2023-10-19T04:49:47;95824.63;;;17.23;100.00
56944;BME280;42848;42.524;12.052;2023-10-19T04:52:12;95817.19;;;17.24;100.00
56944;BME280;42848;42.524;12.052;2023-10-19T04:54:38;95820.38;;;17.29;100.00
56944;BME280;42848;42.524;12.052;2023-10-19T04:57:03;95819.59;;;17.32;100.00
56944;BME280;42848;42.524;12.052;2023-10-19T04:59:29;95818.81;;;17.32;100.00
56944;BME280;42848;42.524;12.052;2023-10-19T05:01:58;95812.53;;;17.31;100.00
56944;BME280;42848;42.524;12.052;2023-10-19T05:04:24;95810.97;;;17.34;100.00
56944;BME280;42848;42.524;12.052;2023-10-19T05:06:49;95818.06;;;17.39;100.00
56944;BME280;42848;42.524;12.052;2023-10-19T05:09:14;95821.19;;;17.44;100.00
56944;BME280;42848;42.524;12.052;2023-10-19T05:11:40;95815.72;;;17.44;100.00
56944;BME280;42848;42.524;12.052;2023-10-19T05:14:06;95823.19;;;17.51;100.00
56944;BME280;42848;42.524;12.052;2023-10-19T05:16:31;95836.91;;;17.54;100.00
56944;BME280;42848;42.524;12.052;2023-10-19T05:18:56;95830.63;;;17.54;100.00
56944;BME280;42848;42.524;12.052;2023-10-19T05:21:22;95831.41;;;17.54;100.00
56944;BME280;42848;42.524;12.052;2023-10-19T05:23:47;95832.63;;;17.57;100.00
56944;BME280;42848;42.524;12.052;2023-10-19T05:26:13;95841.66;;;17.57;100.00
56944;BME280;42848;42.524;12.052;2023-10-19T05:28:40;95853.41;;;17.58;100.00
56944;BME280;42848;42.524;12.052;2023-10-19T05:31:08;95842.44;;;17.58;100.00
56944;BME280;42848;42.524;12.052;2023-10-19T05:33:33;95840.84;;;17.57;100.00
56944;BME280;42848;42.524;12.052;2023-10-19T05:35:59;95840.84;;;17.57;100.00
56944;BME280;42848;42.524;12.052;2023-10-19T05:38:26;95844.78;;;17.56;100.00
56944;BME280;42848;42.524;12.052;2023-10-19T05:40:52;95850.38;;;17.84;100.00
56944;BME280;42848;42.524;12.052;2023-10-19T05:43:18;95856.19;;;17.65;100.00
56944;BME280;42848;42.524;12.052;2023-10-19T05:45:43;95841.66;;;17.64;100.00
56944;BME280;42848;42.524;12.052;2023-10-19T05:48:09;95848.34;;;17.67;100.00
56944;BME280;42848;42.524;12.052;2023-10-19T05:50:36;95847.53;;;17.63;100.00
56944;BME280;42848;42.524;12.052;2023-10-19T05:53:02;95852.25;;;17.66;100.00
56944;BME280;42848;42.524;12.052;2023-10-19T05:55:28;95847.94;;;17.65;100.00
56944;BME280;42848;42.524;12.052;2023-10-19T05:57:54;95853.06;;;17.70;100.00
56944;BME280;42848;42.524;12.052;2023-10-19T06:00:20;95853.44;;;17.65;100.00
56944;BME280;42848;42.524;12.052;2023-10-19T06:02:46;95849.53;;;17.66;100.00
56944;BME280;42848;42.524;12.052;2023-10-19T06:05:13;95860.53;;;17.70;100.00
56944;BME280;42848;42.524;12.052;2023-10-19T06:07:41;95858.94;;;17.65;100.00
56944;BME280;42848;42.524;12.052;2023-10-19T06:10:07;95866.06;;;17.91;100.00
56944;BME280;42848;42.524;12.052;2023-10-19T06:12:32;95870.75;;;17.76;100.00
56944;BME280;42848;42.524;12.052;2023-10-19T06:14:59;95865.28;;;17.83;100.00
56944;BME280;42848;42.524;12.052;2023-10-19T06:17:26;95862.94;;;17.85;100.00
56944;BME280;42848;42.524;12.052;2023-10-19T06:19:52;95857.84;;;17.87;100.00
56944;BME280;42848;42.524;12.052;2023-10-19T06:22:17;95858.22;;;17.89;100.00
56944;BME280;42848;42.524;12.052;2023-10-19T06:24:42;95846.50;;;17.93;100.00
56944;BME280;42848;42.524;12.052;2023-10-19T06:27:09;95850.41;;;17.99;100.00
56944;BME280;42848;42.524;12.052;2023-10-19T06:29:35;95844.16;;;18.05;100.00
56944;BME280;42848;42.524;12.052;2023-10-19T06:32:00;95844.97;;;18.13;100.00
56944;BME280;42848;42.524;12.052;2023-10-19T06:34:25;95844.56;;;18.18;100.00
56944;BME280;42848;42.524;12.052;2023-10-19T06:36:52;95842.63;;;18.22;100.00
56944;BME280;42848;42.524;12.052;2023-10-19T06:39:19;95835.53;;;18.28;100.00
56944;BME280;42848;42.524;12.052;2023-10-19T06:41:46;95839.88;;;18.40;100.00
56944;BME280;42848;42.524;12.052;2023-10-19T06:44:12;95848.13;;;18.47;100.00
56944;BME280;42848;42.524;12.052;2023-10-19T06:46:38;95852.81;;;18.46;100.00
56944;BME280;42848;42.524;12.052;2023-10-19T06:49:04;95852.06;;;18.50;100.00
56944;BME280;42848;42.524;12.052;2023-10-19T06:51:30;95846.16;;;18.58;100.00
56944;BME280;42848;42.524;12.052;2023-10-19T06:53:55;95846.53;;;18.64;100.00
56944;BME280;42848;42.524;12.052;2023-10-19T06:56:21;95856.00;;;18.84;100.00
56944;BME280;42848;42.524;12.052;2023-10-19T06:58:46;95848.13;;;18.79;100.00
56944;BME280;42848;42.524;12.052;2023-10-19T07:01:13;95841.84;;;18.82;100.00
56944;BME280;42848;42.524;12.052;2023-10-19T07:03:41;95848.91;;;18.83;100.00
56944;BME280;42848;42.524;12.052;2023-10-19T07:06:07;95847.72;;;19.06;100.00
56944;BME280;42848;42.524;12.052;2023-10-19T07:08:33;95848.09;;;19.11;100.00
56944;BME280;42848;42.524;12.052;2023-10-19T07:10:58;95851.25;;;19.13;100.00
56944;BME280;42848;42.524;12.052;2023-10-19T07:13:25;95848.09;;;19.15;100.00
56944;BME280;42848;42.524;12.052;2023-10-19T07:15:50;95867.72;;;19.24;100.00
56944;BME280;42848;42.524;12.052;2023-10-19T07:18:16;95868.50;;;19.31;100.00
56944;BME280;42848;42.524;12.052;2023-10-19T07:20:42;95876.34;;;19.26;100.00
56944;BME280;42848;42.524;12.052;2023-10-19T07:23:08;95868.47;;;19.35;100.00
56944;BME280;42848;42.524;12.052;2023-10-19T07:25:52;95876.34;;;19.40;100.00
56944;BME280;42848;42.524;12.052;2023-10-19T07:28:21;95868.47;;;19.39;100.00
56944;BME280;42848;42.524;12.052;2023-10-19T07:30:47;95869.56;;;19.55;100.00
56944;BME280;42848;42.524;12.052;2023-10-19T07:33:13;95862.91;;;19.56;100.00
56944;BME280;42848;42.524;12.052;2023-10-19T07:35:47;95861.72;;;19.61;100.00
56944;BME280;42848;42.524;12.052;2023-10-19T07:38:17;95859.00;;;19.57;100.00
56944;BME280;42848;42.524;12.052;2023-10-19T07:40:46;95864.50;;;19.57;100.00
56944;BME280;42848;42.524;12.052;2023-10-19T07:43:11;95872.38;;;19.59;100.00
56944;BME280;42848;42.524;12.052;2023-10-19T07:45:37;95862.09;;;19.63;100.00
56944;BME280;42848;42.524;12.052;2023-10-19T07:48:03;95866.06;;;19.58;100.00
56944;BME280;42848;42.524;12.052;2023-10-19T07:50:36;95871.16;;;19.64;100.00
56944;BME280;42848;42.524;12.052;2023-10-19T07:53:01;95873.91;;;19.64;100.00
56944;BME280;42848;42.524;12.052;2023-10-19T07:55:28;95866.78;;;19.77;100.00
56944;BME280;42848;42.524;12.052;2023-10-19T07:57:53;95879.25;;;19.99;100.00
56944;BME280;42848;42.524;12.052;2023-10-19T08:00:19;95866.63;;;20.05;100.00
56944;BME280;42848;42.524;12.052;2023-10-19T08:02:45;95868.91;;;20.21;100.00
56944;BME280;42848;42.524;12.052;2023-10-19T08:05:14;95849.25;;;20.15;100.00
56944;BME280;42848;42.524;12.052;2023-10-19T08:07:41;95852.38;;;20.17;100.00
56944;BME280;42848;42.524;12.052;2023-10-19T08:10:10;95838.94;;;20.27;100.00
56944;BME280;42848;42.524;12.052;2023-10-19T08:12:37;95829.56;;;20.17;100.00
56944;BME280;42848;42.524;12.052;2023-10-19T08:15:02;95828.69;;;20.27;100.00
56944;BME280;42848;42.524;12.052;2023-10-19T08:17:29;95826.31;;;20.33;100.00
56944;BME280;42848;42.524;12.052;2023-10-19T08:19:54;95835.78;;;20.28;100.00
56944;BME280;42848;42.524;12.052;2023-10-19T08:22:20;95837.41;;;20.22;100.00
56944;BME280;42848;42.524;12.052;2023-10-19T08:24:46;95832.66;;;20.26;100.00
56944;BME280;42848;42.524;12.052;2023-10-19T08:27:12;95835.81;;;20.25;100.00
56944;BME280;42848;42.524;12.052;2023-10-19T08:29:38;95836.59;;;20.25;100.00
56944;BME280;42848;42.524;12.052;2023-10-19T08:32:04;95836.09;;;20.41;100.00
56944;BME280;42848;42.524;12.052;2023-10-19T08:34:33;95826.94;;;20.58;100.00
56944;BME280;42848;42.524;12.052;2023-10-19T08:37:00;95845.03;;;20.59;100.00
56944;BME280;42848;42.524;12.052;2023-10-19T08:39:26;95836.88;;;20.90;100.00
56944;BME280;42848;42.524;12.052;2023-10-19T08:41:52;95843.69;;;20.78;100.00
56944;BME280;42848;42.524;12.052;2023-10-19T08:44:19;95837.13;;;20.61;100.00
56944;BME280;42848;42.524;12.052;2023-10-19T08:46:45;95838.66;;;20.69;100.00
56944;BME280;42848;42.524;12.052;2023-10-19T08:49:15;95827.72;;;20.55;100.00
56944;BME280;42848;42.524;12.052;2023-10-19T08:51:44;95821.84;;;20.53;100.00
56944;BME280;42848;42.524;12.052;2023-10-19T08:54:10;95822.31;;;20.41;100.00
56944;BME280;42848;42.524;12.052;2023-10-19T08:56:37;95815.19;;;20.47;100.00
56944;BME280;42848;42.524;12.052;2023-10-19T08:59:02;95819.50;;;20.48;100.00
56944;BME280;42848;42.524;12.052;2023-10-19T09:01:28;95821.00;;;20.56;100.00
56944;BME280;42848;42.524;12.052;2023-10-19T09:03:57;95823.72;;;20.67;100.00
56944;BME280;42848;42.524;12.052;2023-10-19T09:06:22;95824.72;;;20.84;100.00
56944;BME280;42848;42.524;12.052;2023-10-19T09:08:48;95829.75;;;20.96;100.00
56944;BME280;42848;42.524;12.052;2023-10-19T09:11:14;95824.81;;;21.14;100.00
56944;BME280;42848;42.524;12.052;2023-10-19T09:13:52;95832.63;;;21.23;100.00
56944;BME280;42848;42.524;12.052;2023-10-19T09:16:21;95817.75;;;21.13;100.00
56944;BME280;42848;42.524;12.052;2023-10-19T09:18:46;95828.66;;;21.24;100.00
56944;BME280;42848;42.524;12.052;2023-10-19T09:21:15;95822.78;;;21.18;100.00
56944;BME280;42848;42.524;12.052;2023-10-19T09:23:49;95813.19;;;21.34;100.00
56944;BME280;42848;42.524;12.052;2023-10-19T09:26:15;95813.78;;;21.52;100.00
56944;BME280;42848;42.524;12.052;2023-10-19T09:28:42;95812.66;;;21.46;100.00
56944;BME280;42848;42.524;12.052;2023-10-19T09:31:07;95820.56;;;21.44;100.00
56944;BME280;42848;42.524;12.052;2023-10-19T09:33:34;95814.41;;;21.33;100.00
56944;BME280;42848;42.524;12.052;2023-10-19T09:36:01;95816.03;;;21.26;100.00
56944;BME280;42848;42.524;12.052;2023-10-19T09:38:26;95816.63;;;21.45;100.00
56944;BME280;42848;42.524;12.052;2023-10-19T09:40:52;95808.88;;;21.33;100.00
56944;BME280;42848;42.524;12.052;2023-10-19T09:43:24;95808.53;;;21.27;100.00
56944;BME280;42848;42.524;12.052;2023-10-19T09:45:56;95815.19;;;21.33;100.00
56944;BME280;42848;42.524;12.052;2023-10-19T09:48:25;95803.28;;;21.40;100.00
56944;BME280;42848;42.524;12.052;2023-10-19T09:50:53;95812.63;;;21.49;100.00
56944;BME280;42848;42.524;12.052;2023-10-19T09:53:25;95797.47;;;21.61;100.00
56944;BME280;42848;42.524;12.052;2023-10-19T09:55:53;95792.09;;;21.50;100.00
56944;BME280;42848;42.524;12.052;2023-10-19T09:58:20;95791.31;;;21.50;100.00
56944;BME280;42848;42.524;12.052;2023-10-19T10:00:48;95788.16;;;21.48;100.00
56944;BME280;42848;42.524;12.052;2023-10-19T10:04:01;95782.63;;;21.48;100.00
56944;BME280;42848;42.524;12.052;2023-10-19T10:06:02;95778.94;;;21.62;100.00
56944;BME280;42848;42.524;12.052;2023-10-19T10:08:29;95791.97;;;21.61;100.00
56944;BME280;42848;42.524;12.052;2023-10-19T10:10:54;95788.72;;;21.66;100.00
56944;BME280;42848;42.524;12.052;2023-10-19T10:15:49;95785.03;;;22.03;100.00
56944;BME280;42848;42.524;12.052;2023-10-19T10:18:15;95777.72;;;22.20;100.00
56944;BME280;42848;42.524;12.052;2023-10-19T10:20:40;95780.72;;;22.29;100.00
56944;BME280;42848;42.524;12.052;2023-10-19T10:23:15;95776.25;;;22.12;100.00
56944;BME280;42848;42.524;12.052;2023-10-19T10:25:41;95771.41;;;22.20;100.00
56944;BME280;42848;42.524;12.052;2023-10-19T10:28:13;95766.66;;;22.20;100.00
56944;BME280;42848;42.524;12.052;2023-10-19T10:31:06;95760.31;;;22.23;100.00
56944;BME280;42848;42.524;12.052;2023-10-19T10:33:37;95761.19;;;22.17;100.00
56944;BME280;42848;42.524;12.052;2023-10-19T10:36:04;95767.44;;;22.21;100.00
56944;BME280;42848;42.524;12.052;2023-10-19T10:38:33;95763.91;;;22.20;100.00
56944;BME280;42848;42.524;12.052;2023-10-19T10:40:59;95757.75;;;22.09;100.00
56944;BME280;42848;42.524;12.052;2023-10-19T10:43:24;95751.88;;;22.30;100.00
56944;BME280;42848;42.524;12.052;2023-10-19T10:45:49;95751.72;;;22.41;100.00
56944;BME280;42848;42.524;12.052;2023-10-19T10:48:16;95735.28;;;22.30;100.00
56944;BME280;42848;42.524;12.052;2023-10-19T10:50:42;95733.16;;;22.41;100.00
56944;BME280;42848;42.524;12.052;2023-10-19T10:53:10;95732.41;;;22.37;100.00
56944;BME280;42848;42.524;12.052;2023-10-19T10:55:36;95735.31;;;22.54;100.00
56944;BME280;42848;42.524;12.052;2023-10-19T10:58:02;95727.59;;;22.65;100.00
56944;BME280;42848;42.524;12.052;2023-10-19T11:00:27;95714.63;;;22.62;100.00
56944;BME280;42848;42.524;12.052;2023-10-19T11:03:03;95717.53;;;22.75;100.00
56944;BME280;42848;42.524;12.052;2023-10-19T11:05:30;95716.06;;;22.47;100.00
56944;BME280;42848;42.524;12.052;2023-10-19T11:08:10;95714.34;;;22.33;100.00
56944;BME280;42848;42.524;12.052;2023-10-19T11:10:40;95705.97;;;22.36;100.00
56944;BME280;42848;42.524;12.052;2023-10-19T11:13:08;95688.72;;;22.52;100.00
56944;BME280;42848;42.524;12.052;2023-10-19T11:15:35;95685.63;;;22.70;100.00
56944;BME280;42848;42.524;12.052;2023-10-19T11:18:07;95678.56;;;22.65;100.00
56944;BME280;42848;42.524;12.052;2023-10-19T11:20:35;95681.75;;;22.44;100.00
56944;BME280;42848;42.524;12.052;2023-10-19T11:23:01;95679.88;;;22.37;100.00
56944;BME280;42848;42.524;12.052;2023-10-19T11:25:28;95682.81;;;22.27;100.00
56944;BME280;42848;42.524;12.052;2023-10-19T11:27:57;95685.78;;;22.16;100.00
56944;BME280;42848;42.524;12.052;2023-10-19T11:30:23;95684.34;;;22.31;100.00
56944;BME280;42848;42.524;12.052;2023-10-19T11:32:49;95684.38;;;22.51;100.00
56944;BME280;42848;42.524;12.052;2023-10-19T11:35:21;95680.84;;;22.51;100.00
56944;BME280;42848;42.524;12.052;2023-10-19T11:37:48;95691.13;;;22.50;100.00
56944;BME280;42848;42.524;12.052;2023-10-19T11:40:14;95685.97;;;22.72;100.00
56944;BME280;42848;42.524;12.052;2023-10-19T11:42:39;95689.28;;;22.63;100.00
56944;BME280;42848;42.524;12.052;2023-10-19T11:45:05;95693.34;;;22.59;100.00
56944;BME280;42848;42.524;12.052;2023-10-19T11:47:31;95689.06;;;22.74;100.00
56944;BME280;42848;42.524;12.052;2023-10-19T11:49:57;95685.97;;;22.72;100.00
56944;BME280;42848;42.524;12.052;2023-10-19T11:52:22;95693.91;;;22.70;100.00
56944;BME280;42848;42.524;12.052;2023-10-19T11:54:48;95700.34;;;22.63;100.00
56944;BME280;42848;42.524;12.052;2023-10-19T11:57:13;95704.78;;;22.57;100.00
56944;BME280;42848;42.524;12.052;2023-10-19T11:59:39;95707.72;;;22.50;100.00
56944;BME280;42848;42.524;12.052;2023-10-19T12:02:06;95710.47;;;22.50;100.00
56944;BME280;42848;42.524;12.052;2023-10-19T12:04:32;95714.25;;;22.36;100.00
56944;BME280;42848;42.524;12.052;2023-10-19T12:07:01;95711.16;;;22.34;100.00
56944;BME280;42848;42.524;12.052;2023-10-19T12:09:28;95708.63;;;22.43;100.00
56944;BME280;42848;42.524;12.052;2023-10-19T12:11:53;95711.63;;;22.53;100.00
56944;BME280;42848;42.524;12.052;2023-10-19T12:14:19;95718.47;;;22.68;100.00
56944;BME280;42848;42.524;12.052;2023-10-19T12:16:46;95706.03;;;22.76;100.00
56944;BME280;42848;42.524;12.052;2023-10-19T12:19:12;95704.25;;;22.66;100.00
56944;BME280;42848;42.524;12.052;2023-10-19T12:21:39;95695.78;;;22.53;100.00
56944;BME280;42848;42.524;12.052;2023-10-19T12:24:07;95699.59;;;22.39;100.00
56944;BME280;42848;42.524;12.052;2023-10-19T12:26:33;95711.72;;;22.46;100.00
56944;BME280;42848;42.524;12.052;2023-10-19T12:28:58;95708.63;;;22.43;100.00
56944;BME280;42848;42.524;12.052;2023-10-19T12:31:24;95718.94;;;22.39;100.00
56944;BME280;42848;42.524;12.052;2023-10-19T12:33:50;95718.16;;;22.39;100.00
56944;BME280;42848;42.524;12.052;2023-10-19T12:36:16;95718.31;;;22.32;100.00
56944;BME280;42848;42.524;12.052;2023-10-19T12:39:00;95710.09;;;22.48;100.00
56944;BME280;42848;42.524;12.052;2023-10-19T12:41:26;95711.25;;;22.51;100.00
56944;BME280;42848;42.524;12.052;2023-10-19T12:43:52;95714.03;;;22.51;100.00
56944;BME280;42848;42.524;12.052;2023-10-19T12:46:25;95711.25;;;22.51;100.00
56944;BME280;42848;42.524;12.052;2023-10-19T12:48:52;95717.94;;;22.53;100.00
56944;BME280;42848;42.524;12.052;2023-10-19T12:51:21;95711.50;;;22.60;100.00